Time;durP1;ratioP1;P1;durP2;ratioP2;P2;SDS_P1;SDS_P2;PMS_P1;PMS_P2;Temp;Humidity;BMP_temperature;BMP_pressure;BME280_temperature;BME280_humidity;BME280_pressure;Samples;Min_cycle;Max_cycle;Signal;HPM_P1;HPM_P2
2021/10/06 00:00:10;;;;;;;23.00;21.77;;;12.10;87.90;;;;;;5074550;28;20557;-74
2021/10/06 00:02:37;;;;;;;21.70;20.50;;;12.10;87.90;;;;;;5070082;28;20493;-74
2021/10/06 00:05:04;;;;;;;22.87;21.37;;;12.10;87.80;;;;;;5073145;28;20482;-74
2021/10/06 00:07:31;;;;;;;22.00;20.80;;;12.00;88.00;;;;;;5084312;28;20536;-74
2021/10/06 00:09:58;;;;;;;22.10;21.00;;;11.90;88.40;;;;;;5070874;28;20908;-74
2021/10/06 00:12:26;;;;;;;21.50;20.30;;;11.80;89.30;;;;;;5070773;28;20894;-74
2021/10/06 00:14:53;;;;;;;21.90;20.80;;;11.90;88.80;;;;;;5078241;28;20453;-74
2021/10/06 00:17:20;;;;;;;21.50;20.40;;;11.80;89.00;;;;;;5079783;28;20453;-74
2021/10/06 00:19:47;;;;;;;22.10;20.93;;;11.80;89.00;;;;;;5071006;28;20470;-74
2021/10/06 00:22:14;;;;;;;21.87;20.70;;;11.70;89.20;;;;;;5070187;28;20454;-74
2021/10/06 00:24:40;;;;;;;21.43;20.30;;;11.70;89.50;;;;;;5070572;28;20898;-74
2021/10/06 00:27:07;;;;;;;22.00;20.87;;;11.60;89.70;;;;;;5081393;28;20951;-74
2021/10/06 00:29:36;;;;;;;22.10;20.83;;;11.60;90.00;;;;;;5084646;28;20790;-74
2021/10/06 00:32:03;;;;;;;22.20;20.90;;;11.50;90.00;;;;;;5080312;28;20473;-74
2021/10/06 00:34:30;;;;;;;21.53;20.17;;;11.50;90.20;;;;;;5082935;28;20463;-74
2021/10/06 00:36:56;;;;;;;21.73;20.53;;;11.40;90.30;;;;;;5070675;28;20458;-74
2021/10/06 00:39:23;;;;;;;21.47;20.37;;;11.40;91.10;;;;;;5074102;28;20452;-74
2021/10/06 00:41:50;;;;;;;22.73;21.40;;;11.30;91.10;;;;;;5085644;28;20473;-74
2021/10/06 00:44:19;;;;;;;22.10;20.80;;;11.40;90.90;;;;;;5082982;28;20900;-74
2021/10/06 00:46:47;;;;;;;22.10;20.63;;;11.30;90.70;;;;;;5070696;28;20469;-74
2021/10/06 00:49:15;;;;;;;21.47;20.27;;;11.30;90.80;;;;;;5070594;28;20468;-74
2021/10/06 00:51:42;;;;;;;21.20;20.00;;;11.20;91.80;;;;;;5086451;28;20563;-74
2021/10/06 00:54:09;;;;;;;21.77;20.60;;;11.20;91.50;;;;;;5081055;28;20484;-74
2021/10/06 00:56:36;;;;;;;21.80;20.37;;;11.20;91.20;;;;;;5075996;28;20532;-74
2021/10/06 00:59:04;;;;;;;21.10;19.90;;;11.10;91.40;;;;;;5083540;28;20534;-74
2021/10/06 01:01:31;;;;;;;20.97;19.87;;;11.10;91.30;;;;;;5074289;28;20469;-74
2021/10/06 01:04:00;;;;;;;22.17;20.80;;;11.10;91.40;;;;;;5075048;28;20476;-74
2021/10/06 01:06:27;;;;;;;22.00;20.80;;;11.00;91.90;;;;;;5078275;28;20533;-74
2021/10/06 01:08:54;;;;;;;21.50;20.40;;;11.00;91.80;;;;;;5070028;28;20978;-74
2021/10/06 01:11:21;;;;;;;21.50;20.20;;;11.00;91.80;;;;;;5068052;28;20587;-74
2021/10/06 01:13:48;;;;;;;21.50;20.30;;;11.00;91.70;;;;;;5069937;28;20448;-74
2021/10/06 01:16:15;;;;;;;21.87;20.67;;;11.00;91.50;;;;;;5082682;28;20450;-74
2021/10/06 01:18:42;;;;;;;21.50;20.30;;;11.00;91.70;;;;;;5079558;28;20464;-74
2021/10/06 01:21:12;;;;;;;21.37;20.27;;;11.00;91.70;;;;;;5068112;28;21096;-74
2021/10/06 01:23:39;;;;;;;21.27;20.17;;;11.00;91.50;;;;;;5069455;28;20879;-74
2021/10/06 01:26:06;;;;;;;21.73;20.33;;;11.00;91.40;;;;;;5075555;28;20468;-74
2021/10/06 01:28:33;;;;;;;21.97;20.57;;;11.00;91.40;;;;;;5070174;28;20815;-74
2021/10/06 01:31:00;;;;;;;21.53;20.33;;;11.00;91.50;;;;;;5073675;28;20483;-74
2021/10/06 01:33:27;;;;;;;22.80;21.30;;;11.00;91.30;;;;;;5069217;28;20544;-74
2021/10/06 01:35:54;;;;;;;21.63;20.37;;;11.00;91.20;;;;;;5069745;28;20492;-74
2021/10/06 01:38:22;;;;;;;21.77;20.47;;;11.10;90.70;;;;;;5081377;28;20461;-74
2021/10/06 01:40:49;;;;;;;21.27;20.00;;;11.20;90.50;;;;;;5071774;28;20470;-74
2021/10/06 01:43:16;;;;;;;21.83;20.60;;;11.20;90.20;;;;;;5087455;28;20464;-74
2021/10/06 01:45:43;;;;;;;20.90;19.80;;;11.20;90.10;;;;;;5069445;28;20474;-74
2021/10/06 01:48:12;;;;;;;21.17;20.07;;;11.10;90.20;;;;;;5068496;28;20483;-74
2021/10/06 01:50:41;;;;;;;21.73;20.47;;;11.00;90.40;;;;;;5070287;28;20851;-74
2021/10/06 01:53:09;;;;;;;21.80;20.70;;;11.00;90.50;;;;;;5085949;28;21400;-74
2021/10/06 01:55:37;;;;;;;21.00;19.90;;;11.00;90.60;;;;;;5070085;28;20554;-74
2021/10/06 01:58:06;;;;;;;21.33;20.10;;;11.00;90.70;;;;;;5069712;28;20959;-74
2021/10/06 02:00:33;;;;;;;21.63;20.33;;;11.00;90.90;;;;;;5076172;28;20473;-74
2021/10/06 02:03:00;;;;;;;20.90;19.80;;;11.00;90.80;;;;;;5068909;28;20458;-74
2021/10/06 02:05:27;;;;;;;22.33;20.83;;;11.00;90.90;;;;;;5069959;28;20509;-74
2021/10/06 02:07:55;;;;;;;21.77;20.57;;;11.00;90.90;;;;;;5074033;28;20485;-74
2021/10/06 02:10:22;;;;;;;20.70;19.70;;;11.00;91.00;;;;;;5072784;28;20482;-74
2021/10/06 02:12:50;;;;;;;21.90;20.63;;;11.00;91.10;;;;;;5069048;28;20446;-74
2021/10/06 02:15:17;;;;;;;21.70;20.50;;;10.90;91.20;;;;;;5070210;28;20449;-74
2021/10/06 02:17:44;;;;;;;21.47;20.13;;;10.90;91.70;;;;;;5082402;28;20459;-74
2021/10/06 02:20:11;;;;;;;21.83;20.50;;;10.90;91.60;;;;;;5075004;28;20516;-74
2021/10/06 02:22:38;;;;;;;21.03;19.93;;;10.80;91.60;;;;;;5090228;28;20484;-74
2021/10/06 02:25:06;;;;;;;21.77;20.57;;;10.80;92.00;;;;;;5074871;28;20495;-74
2021/10/06 02:27:33;;;;;;;21.60;20.50;;;10.80;92.40;;;;;;5074841;28;20456;-74
2021/10/06 02:30:01;;;;;;;21.20;20.10;;;10.80;92.20;;;;;;5073296;28;20516;-74
2021/10/06 02:32:31;;;;;;;21.30;20.00;;;10.80;92.20;;;;;;5080246;28;20484;-74
2021/10/06 02:34:58;;;;;;;21.60;20.27;;;10.80;92.00;;;;;;5076802;28;20986;-74
2021/10/06 02:37:25;;;;;;;21.47;20.20;;;10.80;92.10;;;;;;5073370;28;20465;-74
2021/10/06 02:39:52;;;;;;;21.93;20.73;;;10.80;92.00;;;;;;5072928;28;20450;-74
2021/10/06 02:42:19;;;;;;;21.90;20.53;;;10.70;91.90;;;;;;5072987;28;20563;-74
2021/10/06 02:44:46;;;;;;;22.20;20.90;;;10.70;91.70;;;;;;5072649;28;20473;-74
2021/10/06 02:47:14;;;;;;;23.27;21.90;;;10.70;91.60;;;;;;5077609;28;20461;-74
2021/10/06 02:49:41;;;;;;;22.33;20.63;;;10.70;91.70;;;;;;5076466;28;20450;-74
2021/10/06 02:52:08;;;;;;;22.23;20.83;;;10.70;91.70;;;;;;5077001;28;20483;-74
2021/10/06 02:54:35;;;;;;;20.87;19.60;;;10.70;91.70;;;;;;5073803;28;20546;-74
2021/10/06 02:57:04;;;;;;;22.50;21.23;;;10.70;91.30;;;;;;5071924;28;21011;-74
2021/10/06 02:59:31;;;;;;;22.23;20.50;;;10.70;91.10;;;;;;5072401;28;20461;-74
2021/10/06 03:01:58;;;;;;;21.90;20.70;;;10.70;91.40;;;;;;5076576;28;20473;-74
2021/10/06 03:04:27;;;;;;;21.20;19.90;;;10.60;91.30;;;;;;5075508;28;20485;-74
2021/10/06 03:06:54;;;;;;;22.57;21.20;;;10.60;91.40;;;;;;5077159;28;20462;-74
2021/10/06 03:09:21;;;;;;;22.10;20.57;;;10.60;91.50;;;;;;5074458;28;20450;-74
2021/10/06 03:11:48;;;;;;;23.20;22.00;;;10.50;91.70;;;;;;5074620;28;20606;-74
2021/10/06 03:14:15;;;;;;;22.87;21.40;;;10.50;91.90;;;;;;5074626;28;20470;-74
2021/10/06 03:16:42;;;;;;;21.60;20.40;;;10.50;91.90;;;;;;5072537;28;21630;-74
2021/10/06 03:19:08;;;;;;;25.00;23.50;;;10.50;92.50;;;;;;5076802;28;20446;-74
2021/10/06 03:21:37;;;;;;;23.30;21.60;;;10.50;92.30;;;;;;5072843;28;20470;-74
2021/10/06 03:24:04;;;;;;;22.20;20.90;;;10.60;92.00;;;;;;5077658;28;20454;-73
2021/10/06 03:26:31;;;;;;;23.20;21.80;;;10.50;92.00;;;;;;5071409;28;20470;-74
2021/10/06 03:28:58;;;;;;;23.80;22.50;;;10.50;92.00;;;;;;5076857;28;20457;-74
2021/10/06 03:31:25;;;;;;;21.00;19.83;;;10.50;92.30;;;;;;5071872;28;21171;-73
2021/10/06 03:33:52;;;;;;;25.33;23.73;;;10.50;92.30;;;;;;5070974;28;20797;-74
2021/10/06 03:36:19;;;;;;;23.57;22.17;;;10.50;92.40;;;;;;5071541;28;20540;-74
2021/10/06 03:38:47;;;;;;;22.77;21.37;;;10.50;92.30;;;;;;5083650;28;20457;-74
2021/10/06 03:41:14;;;;;;;26.23;24.60;;;10.50;92.40;;;;;;5074468;28;20496;-74
2021/10/06 03:43:41;;;;;;;25.43;24.03;;;10.50;92.30;;;;;;5077601;28;20561;-73
2021/10/06 03:46:08;;;;;;;21.37;20.27;;;10.60;91.90;;;;;;5071893;28;20504;-73
2021/10/06 03:48:35;;;;;;;21.07;19.80;;;10.60;92.30;;;;;;5072961;28;20458;-74
2021/10/06 03:51:02;;;;;;;21.03;19.83;;;10.60;92.10;;;;;;5082738;28;20474;-74
2021/10/06 03:53:29;;;;;;;23.27;21.97;;;10.60;91.70;;;;;;5080380;28;20505;-73
2021/10/06 03:55:57;;;;;;;21.87;20.67;;;10.70;91.40;;;;;;5071734;28;20461;-73
2021/10/06 03:58:24;;;;;;;22.43;21.00;;;10.70;91.40;;;;;;5083918;28;20548;-74
2021/10/06 04:00:50;;;;;;;21.37;20.07;;;10.70;91.70;;;;;;5071958;28;20474;-73
2021/10/06 04:03:17;;;;;;;22.13;20.83;;;10.70;91.70;;;;;;5080508;28;20459;-74
2021/10/06 04:05:44;;;;;;;23.83;22.50;;;10.70;91.60;;;;;;5071761;28;20549;-73
2021/10/06 04:08:11;;;;;;;23.57;22.27;;;10.80;91.30;;;;;;5082059;28;20959;-74
2021/10/06 04:10:38;;;;;;;22.60;21.10;;;10.80;91.20;;;;;;5071137;28;20806;-73
2021/10/06 04:13:06;;;;;;;25.03;23.30;;;10.80;91.20;;;;;;5077603;28;21096;-73
2021/10/06 04:15:33;;;;;;;21.30;20.07;;;10.80;91.00;;;;;;5073410;28;20454;-73
2021/10/06 04:18:02;;;;;;;21.13;19.93;;;10.80;90.90;;;;;;5076665;28;20465;-74
2021/10/06 04:20:29;;;;;;;22.23;20.93;;;10.80;90.70;;;;;;5070430;28;20470;-73
2021/10/06 04:22:56;;;;;;;20.30;19.00;;;10.70;90.80;;;;;;5070229;28;20454;-73
2021/10/06 04:25:23;;;;;;;21.40;20.23;;;10.70;91.10;;;;;;5061358;28;20850;-73
2021/10/06 04:27:50;;;;;;;22.20;20.90;;;10.70;91.00;;;;;;5060178;28;20800;-74
2021/10/06 04:30:18;;;;;;;22.63;21.40;;;10.70;91.10;;;;;;5060247;28;20493;-73
2021/10/06 04:32:45;;;;;;;21.97;20.73;;;10.70;90.80;;;;;;5060535;28;20559;-73
2021/10/06 04:35:12;;;;;;;22.70;21.40;;;10.70;90.70;;;;;;5060211;28;20465;-77
2021/10/06 04:37:39;;;;;;;22.50;21.20;;;10.60;90.90;;;;;;5060833;28;20480;-73
2021/10/06 04:40:08;;;;;;;21.47;20.17;;;10.70;91.50;;;;;;5059709;28;20220;-73
2021/10/06 04:42:35;;;;;;;21.53;20.43;;;10.80;90.90;;;;;;5061250;28;20462;-73
2021/10/06 04:45:02;;;;;;;21.77;20.40;;;10.70;90.80;;;;;;5059706;28;20859;-73
2021/10/06 04:47:30;;;;;;;21.80;20.57;;;10.80;90.50;;;;;;5059910;28;20461;-73
2021/10/06 04:49:57;;;;;;;24.50;23.20;;;10.80;90.40;;;;;;5059991;28;20464;-72
2021/10/06 04:52:24;;;;;;;22.80;21.40;;;10.80;90.40;;;;;;5059569;28;20465;-72
2021/10/06 04:54:53;;;;;;;22.40;21.00;;;10.80;90.40;;;;;;5062442;28;20445;-73
2021/10/06 04:57:20;;;;;;;22.03;20.70;;;10.80;90.50;;;;;;5060775;28;20854;-71
2021/10/06 04:59:47;;;;;;;21.33;20.07;;;10.90;89.70;;;;;;5059093;28;20840;-72
2021/10/06 05:02:14;;;;;;;21.70;20.57;;;10.90;89.40;;;;;;5059938;28;20462;-72
2021/10/06 05:04:42;;;;;;;22.93;21.63;;;10.90;89.70;;;;;;5058968;28;20458;-73
2021/10/06 05:07:09;;;;;;;22.40;20.73;;;11.00;89.50;;;;;;5060629;28;20471;-76
2021/10/06 05:09:36;;;;;;;21.53;20.33;;;11.10;89.30;;;;;;5067679;28;20540;-76
2021/10/06 05:12:03;;;;;;;22.33;21.13;;;11.10;89.00;;;;;;5077877;28;20477;-77
2021/10/06 05:14:32;;;;;;;22.50;21.20;;;11.00;89.10;;;;;;5076584;28;20539;-74
2021/10/06 05:17:03;;;;;;;21.67;20.57;;;11.10;88.60;;;;;;5072536;28;20770;-77
2021/10/06 05:19:30;;;;;;;24.77;23.37;;;11.20;88.80;;;;;;5072998;28;21048;-75
2021/10/06 05:21:58;;;;;;;22.97;21.60;;;11.20;89.10;;;;;;5070970;28;20484;-73
2021/10/06 05:24:25;;;;;;;21.07;19.97;;;11.20;88.20;;;;;;5076309;28;20453;-73
2021/10/06 05:26:52;;;;;;;22.73;21.40;;;11.20;88.30;;;;;;5073142;28;21066;-73
2021/10/06 05:29:20;;;;;;;21.83;20.53;;;11.30;87.90;;;;;;5078703;28;20449;-72
2021/10/06 05:31:48;;;;;;;21.40;20.20;;;11.30;87.80;;;;;;5071202;28;20531;-72
2021/10/06 05:34:15;;;;;;;23.00;21.80;;;11.30;87.70;;;;;;5075785;28;20553;-72
2021/10/06 05:36:42;;;;;;;21.80;20.43;;;11.30;87.30;;;;;;5072314;28;20445;-72
2021/10/06 05:39:10;;;;;;;21.67;20.37;;;11.30;87.70;;;;;;5071909;28;20536;-72
2021/10/06 05:41:37;;;;;;;22.40;21.20;;;11.30;87.50;;;;;;5078638;28;20474;-71
2021/10/06 05:44:04;;;;;;;22.37;20.97;;;11.30;90.60;;;;;;5075180;28;20453;-72
2021/10/06 05:46:31;;;;;;;23.03;21.83;;;11.40;88.90;;;;;;5078622;28;20878;-72
2021/10/06 05:48:59;;;;;;;23.43;22.13;;;11.40;88.20;;;;;;5075083;28;20457;-72
2021/10/06 05:51:26;;;;;;;22.83;21.63;;;11.40;88.10;;;;;;5073824;28;20477;-72
2021/10/06 05:53:53;;;;;;;22.43;21.03;;;11.40;87.90;;;;;;5072320;28;20450;-72
2021/10/06 05:56:28;;;;;;;21.60;20.37;;;11.40;88.10;;;;;;5073417;28;20452;-71
2021/10/06 05:59:03;;;;;;;22.73;21.42;;;11.50;88.10;;;;;;5076289;28;20465;-71
2021/10/06 06:01:33;;;;;;;25.50;24.20;;;11.60;88.00;;;;;;5082469;28;20219;-72
2021/10/06 06:04:04;;;;;;;24.87;23.57;;;11.40;88.30;;;;;;5086839;28;20540;-73
2021/10/06 06:06:43;;;;;;;25.93;24.30;;;11.40;88.00;;;;;;5075418;28;21006;-71
2021/10/06 06:09:11;;;;;;;25.00;23.50;;;11.40;88.00;;;;;;5071916;28;20482;-72
2021/10/06 06:11:39;;;;;;;24.40;23.00;;;11.30;88.10;;;;;;5071127;28;20486;-71
2021/10/06 06:14:07;;;;;;;24.40;23.00;;;11.40;88.10;;;;;;5089730;28;20540;-73
2021/10/06 06:16:33;;;;;;;25.53;24.03;;;11.40;88.10;;;;;;5086543;28;20460;-73
2021/10/06 06:19:00;;;;;;;25.13;23.73;;;11.50;87.80;;;;;;5088962;28;20528;-72
2021/10/06 06:21:27;;;;;;;25.40;23.90;;;11.50;87.60;;;;;;5076820;28;20513;-72
2021/10/06 06:23:54;;;;;;;25.20;23.57;;;11.40;87.60;;;;;;5071440;28;20454;-73
2021/10/06 06:26:21;;;;;;;25.73;24.17;;;11.40;87.40;;;;;;5070338;28;20485;-72
2021/10/06 06:28:50;;;;;;;24.07;22.77;;;11.50;87.00;;;;;;5070906;28;20461;-73
2021/10/06 06:31:18;;;;;;;25.07;23.70;;;11.40;87.40;;;;;;5069646;28;20478;-73
2021/10/06 06:33:45;;;;;;;24.17;22.77;;;11.40;87.40;;;;;;5071676;28;21149;-73
2021/10/06 06:36:12;;;;;;;24.07;22.63;;;11.40;87.10;;;;;;5080829;28;20445;-73
2021/10/06 06:38:39;;;;;;;25.00;23.40;;;11.50;87.00;;;;;;5082085;28;20465;-72
2021/10/06 06:41:06;;;;;;;24.87;23.57;;;11.50;86.70;;;;;;5069413;28;20999;-72
2021/10/06 06:43:33;;;;;;;25.67;24.10;;;11.50;86.50;;;;;;5071409;28;20470;-72
2021/10/06 06:46:02;;;;;;;26.23;24.33;;;11.60;86.20;;;;;;5071940;28;20589;-72
2021/10/06 06:48:29;;;;;;;23.75;22.15;;;11.70;86.00;;;;;;5070338;28;20463;-73
2021/10/06 06:50:57;;;;;;;25.83;24.13;;;11.90;85.40;;;;;;5073305;28;20556;-72
2021/10/06 06:53:26;;;;;;;23.53;22.23;;;11.90;84.80;;;;;;5075876;28;20485;-72
2021/10/06 06:55:53;;;;;;;24.37;22.80;;;11.90;84.00;;;;;;5071969;28;20454;-74
2021/10/06 06:58:20;;;;;;;25.63;23.90;;;11.90;84.20;;;;;;5079823;28;20488;-73
2021/10/06 07:00:48;;;;;;;25.52;23.98;;;12.00;83.90;;;;;;5079666;28;20454;-72
2021/10/06 07:03:16;;;;;;;26.20;24.60;;;12.10;83.50;;;;;;5071573;28;20962;-72
2021/10/06 07:05:44;;;;;;;26.90;25.43;;;12.10;83.30;;;;;;5077672;28;20480;-73
2021/10/06 07:08:13;;;;;;;24.17;22.70;;;12.20;83.00;;;;;;5078932;28;20533;-72
2021/10/06 07:10:40;;;;;;;24.53;23.13;;;12.30;82.60;;;;;;5074563;28;20838;-72
2021/10/06 07:13:07;;;;;;;25.30;23.60;;;12.20;82.60;;;;;;5074259;28;20455;-72
2021/10/06 07:15:35;;;;;;;24.90;23.30;;;12.30;82.80;;;;;;5075366;28;20457;-72
2021/10/06 07:18:02;;;;;;;25.63;24.13;;;12.30;82.70;;;;;;5087337;28;20464;-72
2021/10/06 07:20:31;;;;;;;25.00;23.40;;;12.30;82.60;;;;;;5077573;28;20558;-72
2021/10/06 07:22:57;;;;;;;24.23;22.83;;;12.30;82.20;;;;;;5086482;28;20580;-72
2021/10/06 07:25:25;;;;;;;24.67;23.27;;;12.30;82.00;;;;;;5072279;28;20480;-73
2021/10/06 07:27:52;;;;;;;24.80;23.30;;;12.40;82.10;;;;;;5078647;28;20885;-73
2021/10/06 07:30:19;;;;;;;24.80;23.33;;;12.40;81.80;;;;;;5071896;28;20473;-73
2021/10/06 07:32:46;;;;;;;26.80;25.20;;;12.50;81.70;;;;;;5084773;28;20453;-73
2021/10/06 07:35:13;;;;;;;27.20;25.70;;;12.60;81.50;;;;;;5075185;28;20462;-72
2021/10/06 07:37:41;;;;;;;26.33;24.13;;;12.70;81.20;;;;;;5081531;28;20453;-71
2021/10/06 07:40:09;;;;;;;25.13;23.73;;;12.80;80.80;;;;;;5074629;28;20482;-71
2021/10/06 07:42:36;;;;;;;25.53;23.80;;;12.90;80.10;;;;;;5080865;28;20463;-71
2021/10/06 07:45:04;;;;;;;26.33;24.73;;;13.10;79.50;;;;;;5073240;28;20962;-71
2021/10/06 07:47:30;;;;;;;28.30;26.17;;;13.10;79.30;;;;;;5083167;28;20830;-71
2021/10/06 07:49:59;;;;;;;24.83;23.13;;;13.20;79.50;;;;;;5074810;28;20982;-71
2021/10/06 07:52:26;;;;;;;27.17;25.13;;;13.50;79.10;;;;;;5082382;28;20453;-71
2021/10/06 07:54:54;;;;;;;25.40;23.80;;;13.60;78.60;;;;;;5078070;28;20455;-71
2021/10/06 07:57:21;;;;;;;27.40;25.40;;;13.90;77.10;;;;;;5083327;28;20456;-71
2021/10/06 07:59:48;;;;;;;24.80;23.30;;;14.00;76.90;;;;;;5069933;28;20464;-71
2021/10/06 08:02:15;;;;;;;27.10;23.80;;;14.00;76.50;;;;;;5071897;28;20478;-71
2021/10/06 08:04:42;;;;;;;26.43;24.10;;;14.00;76.70;;;;;;5071426;28;20454;-71
2021/10/06 08:07:09;;;;;;;25.40;23.80;;;14.30;75.90;;;;;;5070540;28;21241;-71
2021/10/06 08:09:36;;;;;;;25.73;24.10;;;14.40;75.40;;;;;;5071187;28;20466;-71
2021/10/06 08:12:04;;;;;;;26.13;24.33;;;14.40;74.50;;;;;;5075391;28;20483;-71
2021/10/06 08:14:31;;;;;;;26.33;24.80;;;14.60;74.20;;;;;;5078199;28;20541;-71
2021/10/06 08:16:58;;;;;;;26.00;24.50;;;14.70;73.80;;;;;;5070611;28;20447;-73
2021/10/06 08:19:25;;;;;;;27.47;25.67;;;14.90;73.40;;;;;;5079887;28;20457;-70
2021/10/06 08:21:52;;;;;;;25.53;23.93;;;15.00;73.30;;;;;;5082783;28;20515;-71
2021/10/06 08:24:18;;;;;;;24.80;23.03;;;15.10;73.10;;;;;;5070347;28;20482;-72
2021/10/06 08:26:45;;;;;;;26.50;25.00;;;15.10;72.60;;;;;;5069618;28;20828;-73
2021/10/06 08:29:14;;;;;;;26.93;25.10;;;15.30;71.80;;;;;;5077639;28;20540;-73
2021/10/06 08:31:41;;;;;;;25.50;24.00;;;15.50;71.50;;;;;;5084896;28;20478;-73
2021/10/06 08:34:08;;;;;;;25.40;23.80;;;15.60;71.00;;;;;;5079857;28;20572;-73
2021/10/06 08:36:35;;;;;;;26.30;24.50;;;15.60;70.30;;;;;;5079766;28;20565;-74
2021/10/06 08:39:02;;;;;;;25.70;24.00;;;15.50;70.00;;;;;;5074923;28;20456;-74
2021/10/06 08:41:32;;;;;;;25.43;23.83;;;15.40;70.50;;;;;;5071880;28;20564;-73
2021/10/06 08:43:59;;;;;;;25.47;23.97;;;15.20;70.70;;;;;;5080391;28;20466;-73
2021/10/06 08:46:28;;;;;;;26.37;24.87;;;15.00;70.50;;;;;;5071358;28;20477;-73
2021/10/06 08:48:55;;;;;;;24.63;23.33;;;14.90;70.90;;;;;;5074873;28;20457;-72
2021/10/06 08:51:22;;;;;;;25.87;23.90;;;14.70;71.90;;;;;;5076895;28;20480;-73
2021/10/06 08:53:50;;;;;;;24.30;22.63;;;14.70;72.40;;;;;;5074671;28;20453;-73
2021/10/06 08:56:18;;;;;;;24.50;23.10;;;14.70;72.80;;;;;;5079906;28;20945;-73
2021/10/06 08:58:45;;;;;;;25.17;23.60;;;14.60;72.50;;;;;;5072404;28;20457;-73
2021/10/06 09:01:22;;;;;;;26.10;24.57;;;14.50;73.40;;;;;;5082888;28;20553;-72
2021/10/06 09:03:57;;;;;;;24.53;23.23;;;14.50;74.00;;;;;;5074594;28;20459;-73
2021/10/06 09:06:34;;;;;;;29.77;27.50;;;14.60;74.10;;;;;;5082932;28;20496;-73
2021/10/06 09:09:12;;;;;;;25.00;23.40;;;14.80;74.40;;;;;;5084225;28;20984;-73
2021/10/06 09:11:39;;;;;;;25.20;23.40;;;14.80;74.10;;;;;;5071904;28;20474;-73
2021/10/06 09:14:07;;;;;;;24.83;23.43;;;14.90;73.70;;;;;;5077143;28;20826;-73
2021/10/06 09:16:34;;;;;;;24.93;23.20;;;15.10;73.30;;;;;;5076193;28;20457;-73
2021/10/06 09:19:02;;;;;;;25.97;24.00;;;15.20;72.00;;;;;;5075812;28;20536;-72
2021/10/06 09:21:29;;;;;;;25.47;23.73;;;15.30;71.30;;;;;;5075203;28;20470;-72
2021/10/06 09:23:56;;;;;;;25.23;23.73;;;15.40;70.90;;;;;;5080378;28;20803;-73
2021/10/06 09:26:23;;;;;;;24.73;23.13;;;15.30;70.20;;;;;;5080812;28;21017;-73
2021/10/06 09:28:51;;;;;;;24.13;22.73;;;15.50;69.20;;;;;;5075064;28;20507;-72
2021/10/06 09:31:20;;;;;;;25.13;23.57;;;15.60;69.40;;;;;;5086329;28;20476;-74
2021/10/06 09:33:51;;;;;;;25.37;23.47;;;15.90;68.40;;;;;;5080813;28;20459;-72
2021/10/06 09:36:24;;;;;;;24.37;22.97;;;15.90;68.50;;;;;;5070816;28;20533;-73
2021/10/06 09:38:53;;;;;;;25.57;24.10;;;16.00;67.00;;;;;;5074388;28;20459;-72
2021/10/06 09:41:36;;;;;;;25.80;24.13;;;16.20;66.50;;;;;;5072147;28;21030;-72
2021/10/06 09:44:09;;;;;;;25.13;23.63;;;16.30;65.50;;;;;;5069849;28;20478;-72
2021/10/06 09:46:46;;;;;;;25.50;24.10;;;16.50;65.90;;;;;;5072515;28;20478;-72
2021/10/06 09:49:22;;;;;;;26.00;24.10;;;16.80;64.80;;;;;;5074357;28;20457;-71
2021/10/06 09:51:51;;;;;;;25.53;24.13;;;16.80;65.00;;;;;;5085208;28;20578;-73
2021/10/06 09:54:19;;;;;;;27.37;25.80;;;17.00;64.00;;;;;;5079049;28;20453;-72
2021/10/06 09:56:48;;;;;;;26.37;24.47;;;17.10;64.20;;;;;;5074809;28;20940;-73
2021/10/06 09:59:16;;;;;;;26.00;24.27;;;17.30;62.50;;;;;;5078470;28;20776;-73
2021/10/06 10:01:45;;;;;;;25.20;23.90;;;17.30;62.60;;;;;;5084402;28;20839;-75
2021/10/06 10:04:13;;;;;;;25.00;23.60;;;17.00;60.40;;;;;;5068144;28;21008;-73
2021/10/06 10:06:40;;;;;;;24.10;22.80;;;16.50;63.60;;;;;;5069376;28;20478;-73
2021/10/06 10:09:10;;;;;;;25.70;24.20;;;16.40;65.40;;;;;;5075565;28;20480;-73
2021/10/06 10:11:38;;;;;;;25.20;23.77;;;16.10;66.50;;;;;;5086412;28;20469;-73
2021/10/06 10:14:07;;;;;;;26.30;24.67;;;15.60;67.90;;;;;;5074765;28;20461;-73
2021/10/06 10:16:36;;;;;;;24.97;23.57;;;15.10;70.10;;;;;;5074942;28;21159;-73
2021/10/06 10:19:06;;;;;;;26.00;24.60;;;14.30;73.00;;;;;;5073188;28;20483;-73
2021/10/06 10:21:34;;;;;;;26.33;24.83;;;14.00;75.40;;;;;;5074827;28;20470;-74
2021/10/06 10:24:13;;;;;;;23.10;21.80;;;13.90;75.60;;;;;;5082165;28;20891;-73
2021/10/06 10:26:59;;;;;;;24.73;23.13;;;14.00;74.70;;;;;;5077776;28;20500;-72
2021/10/06 10:29:43;;;;;;;25.03;23.53;;;14.00;74.10;;;;;;5069932;28;20461;-73
2021/10/06 10:32:12;;;;;;;24.37;22.77;;;14.10;72.30;;;;;;5070977;28;20809;-73
2021/10/06 10:35:02;;;;;;;25.40;23.90;;;14.40;73.20;;;;;;5081965;28;20463;-73
2021/10/06 10:38:20;;;;;;;25.20;23.60;;;14.90;73.10;;;;;;5074192;28;20438;-73
2021/10/06 10:40:54;;;;;;;24.90;23.40;;;15.50;72.50;;;;;;5072797;28;20476;-72
2021/10/06 10:43:23;;;;;;;24.80;23.40;;;15.80;72.30;;;;;;5072866;28;20538;-73
2021/10/06 10:46:11;;;;;;;24.93;23.33;;;16.20;71.00;;;;;;5072602;28;20458;-73
2021/10/06 10:49:02;;;;;;;24.50;23.10;;;16.50;70.00;;;;;;5074191;28;20480;-73
2021/10/06 10:51:43;;;;;;;27.00;25.30;;;16.60;68.70;;;;;;5092683;28;20747;-73
2021/10/06 10:54:11;;;;;;;25.27;23.70;;;16.50;69.40;;;;;;5073637;28;20450;-74
2021/10/06 10:56:52;;;;;;;25.10;23.70;;;16.20;71.20;;;;;;5072070;28;20480;-73
2021/10/06 10:59:23;;;;;;;24.83;23.13;;;15.80;71.50;;;;;;5072062;28;20464;-73
2021/10/06 11:01:53;;;;;;;23.80;22.40;;;15.60;71.30;;;;;;5072191;28;20478;-73
2021/10/06 11:04:23;;;;;;;26.20;24.10;;;15.60;72.20;;;;;;5071420;28;20462;-73
2021/10/06 11:06:52;;;;;;;26.30;24.30;;;15.60;72.90;;;;;;5072147;28;20480;-73
2021/10/06 11:09:42;;;;;;;24.30;22.60;;;15.90;73.00;;;;;;5074464;28;20465;-73
2021/10/06 11:12:41;;;;;;;24.53;23.03;;;16.20;72.10;;;;;;5072791;28;20458;-73
2021/10/06 11:15:29;;;;;;;25.17;23.73;;;16.40;71.50;;;;;;5086206;28;20544;-73
2021/10/06 11:18:27;;;;;;;24.97;23.57;;;16.60;70.70;;;;;;5074970;28;20692;-73
2021/10/06 11:20:58;;;;;;;26.53;24.80;;;16.80;70.80;;;;;;5073568;28;20470;-72
2021/10/06 11:23:43;;;;;;;25.70;23.90;;;16.90;70.00;;;;;;5071503;28;20461;-72
2021/10/06 11:26:12;;;;;;;26.23;23.93;;;16.90;70.40;;;;;;5071958;28;20458;-72
2021/10/06 11:28:43;;;;;;;24.87;23.57;;;17.00;70.50;;;;;;5071496;28;20573;-71
2021/10/06 11:31:11;;;;;;;25.20;23.80;;;17.10;70.30;;;;;;5071753;28;20474;-72
2021/10/06 11:33:38;;;;;;;24.70;23.30;;;17.20;69.70;;;;;;5078045;28;20462;-72
2021/10/06 11:36:16;;;;;;;25.33;23.80;;;17.20;69.40;;;;;;5075824;28;20458;-74
2021/10/06 11:38:45;;;;;;;24.50;23.10;;;17.30;69.60;;;;;;5070741;28;20540;-74
2021/10/06 11:41:13;;;;;;;24.97;23.60;;;17.40;67.80;;;;;;5091625;28;20483;-73
2021/10/06 11:43:47;;;;;;;25.93;24.03;;;17.30;67.50;;;;;;5084906;28;20461;-73
2021/10/06 11:46:16;;;;;;;26.43;24.87;;;17.20;68.40;;;;;;5075763;28;20963;-74
2021/10/06 11:48:44;;;;;;;26.40;24.90;;;17.00;67.80;;;;;;5073083;28;20473;-73
2021/10/06 11:51:11;;;;;;;25.83;24.23;;;17.00;66.30;;;;;;5091412;28;20469;-73
2021/10/06 11:53:43;;;;;;;25.40;23.80;;;17.00;64.00;;;;;;5082209;28;20963;-73
2021/10/06 11:56:11;;;;;;;27.00;25.23;;;17.00;64.90;;;;;;5071209;28;20454;-73
2021/10/06 11:58:40;;;;;;;25.70;24.20;;;17.10;64.10;;;;;;5072195;28;20462;-73
2021/10/06 12:01:10;;;;;;;25.43;24.03;;;17.20;63.60;;;;;;5080727;28;20472;-73
2021/10/06 12:03:40;;;;;;;25.33;23.80;;;17.30;62.50;;;;;;5069013;28;20462;-73
2021/10/06 12:06:08;;;;;;;25.60;24.20;;;17.50;61.50;;;;;;5070592;28;20481;-73
2021/10/06 12:08:36;;;;;;;27.57;25.97;;;17.50;60.50;;;;;;5067779;28;21275;-74
2021/10/06 12:11:05;;;;;;;25.30;24.00;;;17.50;61.10;;;;;;5083138;28;20565;-73
2021/10/06 12:13:33;;;;;;;26.87;25.17;;;17.50;60.60;;;;;;5073930;28;20460;-72
2021/10/06 12:16:01;;;;;;;25.53;24.07;;;17.50;60.70;;;;;;5079679;28;20466;-75
2021/10/06 12:18:29;;;;;;;26.13;24.73;;;17.50;61.30;;;;;;5071299;28;20469;-73
2021/10/06 12:20:56;;;;;;;26.70;25.20;;;17.30;62.00;;;;;;5077794;28;20466;-71
2021/10/06 12:23:25;;;;;;;25.80;24.20;;;17.20;63.40;;;;;;5072015;28;20552;-72
2021/10/06 12:25:55;;;;;;;25.10;23.70;;;16.90;64.80;;;;;;5074242;28;20470;-73
2021/10/06 12:28:22;;;;;;;24.87;23.37;;;16.00;67.00;;;;;;5071056;28;20470;-74
2021/10/06 12:30:56;;;;;;;25.17;23.87;;;15.30;71.10;;;;;;5080711;28;20491;-71
2021/10/06 12:33:28;;;;;;;25.50;24.10;;;15.00;72.90;;;;;;5074953;28;20515;-73
2021/10/06 12:35:57;;;;;;;24.40;23.07;;;14.90;73.50;;;;;;5072118;28;20449;-72